sensor_id;sensor_type;location;lat;lon;timestamp;pressure;altitude;pressure_sealevel;temperature;humidity
75681;BME280;64294;49.176;16.626;2023-11-21T00:01:32;98643.50;;;2.79;100.00
75681;BME280;64294;49.176;16.626;2023-11-21T00:03:57;98648.03;;;2.76;100.00
75681;BME280;64294;49.176;16.626;2023-11-21T00:06:23;98644.00;;;2.71;100.00
75681;BME280;64294;49.176;16.626;2023-11-21T00:08:48;98647.00;;;2.68;100.00
75681;BME280;64294;49.176;16.626;2023-11-21T00:11:14;98644.47;;;2.64;100.00
75681;BME280;64294;49.176;16.626;2023-11-21T00:13:39;98641.22;;;2.71;100.00
75681;BME280;64294;49.176;16.626;2023-11-21T00:16:05;98643.78;;;2.81;100.00
75681;BME280;64294;49.176;16.626;2023-11-21T00:18:32;98646.81;;;2.83;100.00
75681;BME280;64294;49.176;16.626;2023-11-21T00:20:58;98641.50;;;2.79;100.00
75681;BME280;64294;49.176;16.626;2023-11-21T00:23:24;98641.22;;;2.77;100.00
75681;BME280;64294;49.176;16.626;2023-11-21T00:25:49;98652.31;;;2.71;100.00
75681;BME280;64294;49.176;16.626;2023-11-21T00:28:15;98658.88;;;2.68;100.00
75681;BME280;64294;49.176;16.626;2023-11-21T00:30:40;98658.63;;;2.72;100.00
75681;BME280;64294;49.176;16.626;2023-11-21T00:33:05;98659.88;;;2.65;100.00
75681;BME280;64294;49.176;16.626;2023-11-21T00:35:31;98661.38;;;2.66;100.00
75681;BME280;64294;49.176;16.626;2023-11-21T00:37:56;98657.84;;;2.60;100.00
75681;BME280;64294;49.176;16.626;2023-11-21T00:40:22;98655.28;;;2.51;100.00
75681;BME280;64294;49.176;16.626;2023-11-21T00:42:48;98654.00;;;2.47;100.00
75681;BME280;64294;49.176;16.626;2023-11-21T00:45:13;98644.19;;;2.51;100.00
75681;BME280;64294;49.176;16.626;2023-11-21T00:47:40;98652.97;;;2.44;100.00
75681;BME280;64294;49.176;16.626;2023-11-21T00:50:06;98659.78;;;2.43;100.00
75681;BME280;64294;49.176;16.626;2023-11-21T00:52:34;98661.31;;;2.44;100.00
75681;BME280;64294;49.176;16.626;2023-11-21T00:55:01;98652.97;;;2.44;100.00
75681;BME280;64294;49.176;16.626;2023-11-21T00:57:28;98655.19;;;2.34;100.00
75681;BME280;64294;49.176;16.626;2023-11-21T00:59:53;98660.47;;;2.27;100.00
75681;BME280;64294;49.176;16.626;2023-11-21T01:02:19;98655.91;;;2.24;100.00
75681;BME280;64294;49.176;16.626;2023-11-21T01:04:45;98668.53;;;2.25;100.00
75681;BME280;64294;49.176;16.626;2023-11-21T01:07:10;98647.63;;;2.35;100.00
75681;BME280;64294;49.176;16.626;2023-11-21T01:09:38;98649.38;;;2.32;100.00
75681;BME280;64294;49.176;16.626;2023-11-21T01:12:04;98648.88;;;2.34;100.00
75681;BME280;64294;49.176;16.626;2023-11-21T01:14:29;98646.09;;;2.28;100.00
75681;BME280;64294;49.176;16.626;2023-11-21T01:16:55;98642.75;;;2.19;100.00
75681;BME280;64294;49.176;16.626;2023-11-21T01:19:20;98645.50;;;2.07;100.00
75681;BME280;64294;49.176;16.626;2023-11-21T01:21:46;98638.88;;;1.99;100.00
75681;BME280;64294;49.176;16.626;2023-11-21T01:24:12;98648.44;;;1.98;100.00
75681;BME280;64294;49.176;16.626;2023-11-21T01:26:37;98643.66;;;1.99;100.00
75681;BME280;64294;49.176;16.626;2023-11-21T01:29:03;98651.94;;;1.93;100.00
75681;BME280;64294;49.176;16.626;2023-11-21T01:31:28;98653.94;;;1.87;100.00
75681;BME280;64294;49.176;16.626;2023-11-21T01:33:56;98653.66;;;1.85;100.00
75681;BME280;64294;49.176;16.626;2023-11-21T01:36:30;98646.66;;;1.90;100.00
75681;BME280;64294;49.176;16.626;2023-11-21T01:39:00;98656.41;;;1.85;100.00
75681;BME280;64294;49.176;16.626;2023-11-21T01:41:27;98651.38;;;1.83;100.00
75681;BME280;64294;49.176;16.626;2023-11-21T01:43:52;98653.84;;;1.76;100.00
75681;BME280;64294;49.176;16.626;2023-11-21T01:46:19;98647.06;;;1.77;100.00
75681;BME280;64294;49.176;16.626;2023-11-21T01:48:45;98650.09;;;1.79;100.00
75681;BME280;64294;49.176;16.626;2023-11-21T01:51:11;98648.53;;;1.72;100.00
75681;BME280;64294;49.176;16.626;2023-11-21T01:53:37;98648.94;;;1.60;100.00
75681;BME280;64294;49.176;16.626;2023-11-21T01:56:12;98647.97;;;1.63;100.00
75681;BME280;64294;49.176;16.626;2023-11-21T01:58:39;98654.31;;;1.69;100.00
75681;BME280;64294;49.176;16.626;2023-11-21T02:01:04;98659.31;;;1.65;100.00
75681;BME280;64294;49.176;16.626;2023-11-21T02:03:30;98657.72;;;1.52;100.00
75681;BME280;64294;49.176;16.626;2023-11-21T02:05:56;98654.75;;;1.62;100.00
75681;BME280;64294;49.176;16.626;2023-11-21T02:08:21;98658.53;;;1.64;100.00
75681;BME280;64294;49.176;16.626;2023-11-21T02:10:47;98651.25;;;1.67;100.00
75681;BME280;64294;49.176;16.626;2023-11-21T02:13:15;98644.53;;;1.73;100.00
75681;BME280;64294;49.176;16.626;2023-11-21T02:15:41;98650.09;;;1.79;100.00
75681;BME280;64294;49.176;16.626;2023-11-21T02:18:07;98656.41;;;1.79;100.00
75681;BME280;64294;49.176;16.626;2023-11-21T02:20:32;98650.88;;;1.85;100.00
75681;BME280;64294;49.176;16.626;2023-11-21T02:23:00;98652.13;;;1.84;100.00
75681;BME280;64294;49.176;16.626;2023-11-21T02:25:32;98655.38;;;1.77;100.00
75681;BME280;64294;49.176;16.626;2023-11-21T02:28:02;98660.91;;;1.77;100.00
75681;BME280;64294;49.176;16.626;2023-11-21T02:30:29;98652.59;;;1.77;100.00
75681;BME280;64294;49.176;16.626;2023-11-21T02:32:55;98658.16;;;1.82;100.00
75681;BME280;64294;49.176;16.626;2023-11-21T02:35:24;98645.56;;;1.81;100.00
75681;BME280;64294;49.176;16.626;2023-11-21T02:37:51;98641.28;;;1.80;100.00
75681;BME280;64294;49.176;16.626;2023-11-21T02:40:20;98635.75;;;1.80;100.00
75681;BME280;64294;49.176;16.626;2023-11-21T02:42:50;98630.69;;;1.79;100.00
75681;BME280;64294;49.176;16.626;2023-11-21T02:45:19;98629.72;;;1.82;100.00
75681;BME280;64294;49.176;16.626;2023-11-21T02:47:46;98642.78;;;1.76;100.00
75681;BME280;64294;49.176;16.626;2023-11-21T02:50:12;98646.78;;;1.69;100.00
75681;BME280;64294;49.176;16.626;2023-11-21T02:52:37;98647.47;;;1.64;100.00
75681;BME280;64294;49.176;16.626;2023-11-21T02:55:04;98637.34;;;1.56;100.00
75681;BME280;64294;49.176;16.626;2023-11-21T02:57:30;98643.31;;;1.48;100.00
75681;BME280;64294;49.176;16.626;2023-11-21T02:59:55;98637.50;;;1.46;100.00
75681;BME280;64294;49.176;16.626;2023-11-21T03:02:21;98636.22;;;1.42;100.00
75681;BME280;64294;49.176;16.626;2023-11-21T03:04:47;98640.47;;;1.37;100.00
75681;BME280;64294;49.176;16.626;2023-11-21T03:07:14;98642.75;;;1.39;100.00
75681;BME280;64294;49.176;16.626;2023-11-21T03:09:40;98633.41;;;1.36;100.00
75681;BME280;64294;49.176;16.626;2023-11-21T03:12:05;98643.78;;;1.41;100.00
75681;BME280;64294;49.176;16.626;2023-11-21T03:14:31;98632.66;;;1.36;100.00
75681;BME280;64294;49.176;16.626;2023-11-21T03:16:56;98627.84;;;1.31;100.00
75681;BME280;64294;49.176;16.626;2023-11-21T03:19:22;98626.03;;;1.28;100.00
75681;BME280;64294;49.176;16.626;2023-11-21T03:21:48;98622.25;;;1.25;100.00
75681;BME280;64294;49.176;16.626;2023-11-21T03:24:14;98622.69;;;1.18;100.00
75681;BME280;64294;49.176;16.626;2023-11-21T03:26:44;98620.69;;;1.18;100.00
75681;BME280;64294;49.176;16.626;2023-11-21T03:29:10;98629.63;;;1.08;100.00
75681;BME280;64294;49.176;16.626;2023-11-21T03:31:35;98621.59;;;1.10;100.00
75681;BME280;64294;49.176;16.626;2023-11-21T03:34:01;98624.81;;;1.03;100.00
75681;BME280;64294;49.176;16.626;2023-11-21T03:36:26;98629.56;;;0.97;100.00
75681;BME280;64294;49.176;16.626;2023-11-21T03:38:52;98634.31;;;0.96;100.00
75681;BME280;64294;49.176;16.626;2023-11-21T03:41:17;98624.56;;;1.01;100.00
75681;BME280;64294;49.176;16.626;2023-11-21T03:43:43;98629.97;;;0.89;100.00
75681;BME280;64294;49.176;16.626;2023-11-21T03:46:08;98625.94;;;0.90;100.00
75681;BME280;64294;49.176;16.626;2023-11-21T03:48:33;98630.19;;;0.86;100.00
75681;BME280;64294;49.176;16.626;2023-11-21T03:50:59;98633.19;;;0.82;100.00
75681;BME280;64294;49.176;16.626;2023-11-21T03:53:24;98634.19;;;0.85;100.00
75681;BME280;64294;49.176;16.626;2023-11-21T03:55:50;98629.91;;;0.84;100.00
75681;BME280;64294;49.176;16.626;2023-11-21T03:58:15;98631.38;;;0.79;100.00
75681;BME280;64294;49.176;16.626;2023-11-21T04:00:40;98635.19;;;0.82;100.00
75681;BME280;64294;49.176;16.626;2023-11-21T04:03:06;98640.19;;;0.78;100.00
75681;BME280;64294;49.176;16.626;2023-11-21T04:05:32;98640.19;;;0.78;100.00
75681;BME280;64294;49.176;16.626;2023-11-21T04:07:57;98628.75;;;0.70;100.00
75681;BME280;64294;49.176;16.626;2023-11-21T04:10:23;98629.31;;;0.74;100.00
75681;BME280;64294;49.176;16.626;2023-11-21T04:12:48;98633.31;;;0.73;100.00
75681;BME280;64294;49.176;16.626;2023-11-21T04:15:14;98625.78;;;0.74;100.00
75681;BME280;64294;49.176;16.626;2023-11-21T04:17:41;98635.13;;;0.76;100.00
75681;BME280;64294;49.176;16.626;2023-11-21T04:20:08;98638.72;;;0.82;100.00
75681;BME280;64294;49.176;16.626;2023-11-21T04:22:41;98634.19;;;0.85;100.00
75681;BME280;64294;49.176;16.626;2023-11-21T04:25:13;98633.75;;;0.92;100.00
75681;BME280;64294;49.176;16.626;2023-11-21T04:27:45;98638.44;;;0.80;100.00
75681;BME280;64294;49.176;16.626;2023-11-21T04:30:11;98634.91;;;0.80;100.00
75681;BME280;64294;49.176;16.626;2023-11-21T04:32:38;98633.63;;;0.75;100.00
75681;BME280;64294;49.176;16.626;2023-11-21T04:35:07;98635.41;;;0.78;100.00
75681;BME280;64294;49.176;16.626;2023-11-21T04:37:36;98632.63;;;0.78;100.00
75681;BME280;64294;49.176;16.626;2023-11-21T04:40:02;98639.59;;;0.74;100.00
75681;BME280;64294;49.176;16.626;2023-11-21T04:42:35;98631.53;;;0.70;100.00
75681;BME280;64294;49.176;16.626;2023-11-21T04:45:05;98641.50;;;0.62;100.00
75681;BME280;64294;49.176;16.626;2023-11-21T04:47:35;98637.44;;;0.57;100.00
75681;BME280;64294;49.176;16.626;2023-11-21T04:50:02;98637.16;;;0.55;100.00
75681;BME280;64294;49.176;16.626;2023-11-21T04:52:28;98642.63;;;0.50;100.00
75681;BME280;64294;49.176;16.626;2023-11-21T04:54:54;98647.13;;;0.47;100.00
75681;BME280;64294;49.176;16.626;2023-11-21T04:57:20;98652.09;;;0.43;100.00
75681;BME280;64294;49.176;16.626;2023-11-21T04:59:47;98647.28;;;0.38;100.00
75681;BME280;64294;49.176;16.626;2023-11-21T05:02:13;98655.75;;;0.35;100.00
75681;BME280;64294;49.176;16.626;2023-11-21T05:04:38;98649.75;;;0.36;100.00
75681;BME280;64294;49.176;16.626;2023-11-21T05:07:08;98643.94;;;0.34;100.00
75681;BME280;64294;49.176;16.626;2023-11-21T05:09:34;98651.13;;;0.46;100.00
75681;BME280;64294;49.176;16.626;2023-11-21T05:12:01;98650.69;;;0.53;100.00
75681;BME280;64294;49.176;16.626;2023-11-21T05:14:27;98646.16;;;0.50;100.00
75681;BME280;64294;49.176;16.626;2023-11-21T05:16:52;98653.41;;;0.48;100.00
75681;BME280;64294;49.176;16.626;2023-11-21T05:19:17;98653.69;;;0.50;100.00
75681;BME280;64294;49.176;16.626;2023-11-21T05:21:43;98654.97;;;0.54;100.00
75681;BME280;64294;49.176;16.626;2023-11-21T05:24:08;98652.03;;;0.58;100.00
75681;BME280;64294;49.176;16.626;2023-11-21T05:26:34;98651.66;;;0.71;100.00
75681;BME280;64294;49.176;16.626;2023-11-21T05:29:00;98648.66;;;0.74;100.00
75681;BME280;64294;49.176;16.626;2023-11-21T05:31:25;98646.25;;;0.82;100.00
75681;BME280;64294;49.176;16.626;2023-11-21T05:33:52;98642.09;;;0.72;100.00
75681;BME280;64294;49.176;16.626;2023-11-21T05:36:18;98645.84;;;0.69;100.00
75681;BME280;64294;49.176;16.626;2023-11-21T05:38:43;98650.28;;;0.60;100.00
75681;BME280;64294;49.176;16.626;2023-11-21T05:41:09;98657.56;;;0.58;100.00
75681;BME280;64294;49.176;16.626;2023-11-21T05:43:38;98660.88;;;0.62;100.00
75681;BME280;64294;49.176;16.626;2023-11-21T05:46:04;98651.88;;;0.47;100.00
75681;BME280;64294;49.176;16.626;2023-11-21T05:48:29;98658.13;;;0.42;100.00
75681;BME280;64294;49.176;16.626;2023-11-21T05:50:55;98660.34;;;0.38;100.00
75681;BME280;64294;49.176;16.626;2023-11-21T05:53:20;98652.22;;;0.34;100.00
75681;BME280;64294;49.176;16.626;2023-11-21T05:55:47;98650.09;;;0.44;100.00
75681;BME280;64294;49.176;16.626;2023-11-21T05:58:13;98653.97;;;0.32;100.00
75681;BME280;64294;49.176;16.626;2023-11-21T06:00:38;98659.16;;;0.24;100.00
75681;BME280;64294;49.176;16.626;2023-11-21T06:03:04;98663.91;;;0.23;100.00
75681;BME280;64294;49.176;16.626;2023-11-21T06:05:32;98663.97;;;0.29;100.00
75681;BME280;64294;49.176;16.626;2023-11-21T06:07:58;98661.00;;;0.33;100.00
75681;BME280;64294;49.176;16.626;2023-11-21T06:10:24;98671.25;;;0.26;100.00
75681;BME280;64294;49.176;16.626;2023-11-21T06:12:51;98674.91;;;0.38;100.00
75681;BME280;64294;49.176;16.626;2023-11-21T06:15:17;98674.34;;;0.34;100.00
75681;BME280;64294;49.176;16.626;2023-11-21T06:17:45;98684.34;;;0.32;100.00
75681;BME280;64294;49.176;16.626;2023-11-21T06:20:18;98690.75;;;0.38;100.00
75681;BME280;64294;49.176;16.626;2023-11-21T06:22:44;98683.81;;;0.48;100.00
75681;BME280;64294;49.176;16.626;2023-11-21T06:25:11;98683.75;;;0.63;100.00
75681;BME280;64294;49.176;16.626;2023-11-21T06:27:48;98688.63;;;0.73;100.00
75681;BME280;64294;49.176;16.626;2023-11-21T06:30:14;98684.47;;;0.83;100.00
75681;BME280;64294;49.176;16.626;2023-11-21T06:32:40;98688.72;;;0.79;100.00
75681;BME280;64294;49.176;16.626;2023-11-21T06:35:07;98684.22;;;0.81;100.00
75681;BME280;64294;49.176;16.626;2023-11-21T06:37:33;98688.03;;;1.10;100.00
75681;BME280;64294;49.176;16.626;2023-11-21T06:40:00;98686.75;;;2.42;100.00
75681;BME280;64294;49.176;16.626;2023-11-21T06:42:26;98689.81;;;3.49;100.00
75681;BME280;64294;49.176;16.626;2023-11-21T06:44:52;98690.50;;;4.97;100.00
75681;BME280;64294;49.176;16.626;2023-11-21T06:47:18;98735.81;;;6.15;100.00
75681;BME280;64294;49.176;16.626;2023-11-21T06:49:46;98767.72;;;6.74;100.00
75681;BME280;64294;49.176;16.626;2023-11-21T06:52:13;98774.97;;;7.26;97.86
75681;BME280;64294;49.176;16.626;2023-11-21T06:54:39;98771.69;;;8.10;88.91
75681;BME280;64294;49.176;16.626;2023-11-21T06:57:05;98776.44;;;9.74;77.55
75681;BME280;64294;49.176;16.626;2023-11-21T06:59:30;98776.44;;;11.14;72.51
75681;BME280;64294;49.176;16.626;2023-11-21T07:01:55;98781.53;;;10.80;65.83
75681;BME280;64294;49.176;16.626;2023-11-21T07:04:21;98777.69;;;11.34;66.73
75681;BME280;64294;49.176;16.626;2023-11-21T07:06:46;98779.25;;;12.17;60.71
75681;BME280;64294;49.176;16.626;2023-11-21T07:09:12;98784.16;;;12.85;57.97
75681;BME280;64294;49.176;16.626;2023-11-21T07:11:37;98784.31;;;11.96;59.44
75681;BME280;64294;49.176;16.626;2023-11-21T07:14:04;98797.13;;;13.91;55.13
75681;BME280;64294;49.176;16.626;2023-11-21T07:16:35;98798.84;;;14.52;51.12
75681;BME280;64294;49.176;16.626;2023-11-21T07:19:03;98804.69;;;15.48;52.27
75681;BME280;64294;49.176;16.626;2023-11-21T07:21:32;98800.97;;;15.63;49.44
75681;BME280;64294;49.176;16.626;2023-11-21T07:24:01;98807.59;;;15.23;48.98
75681;BME280;64294;49.176;16.626;2023-11-21T07:26:27;98806.25;;;14.90;48.88
75681;BME280;64294;49.176;16.626;2023-11-21T07:28:53;98815.16;;;16.90;45.23
75681;BME280;64294;49.176;16.626;2023-11-21T07:31:18;98805.00;;;19.36;42.21
75681;BME280;64294;49.176;16.626;2023-11-21T07:33:45;98809.75;;;18.20;41.42
75681;BME280;64294;49.176;16.626;2023-11-21T07:36:12;98817.84;;;16.88;44.18
75681;BME280;64294;49.176;16.626;2023-11-21T07:38:38;98816.84;;;18.09;41.77
75681;BME280;64294;49.176;16.626;2023-11-21T07:41:04;98816.19;;;18.30;41.94
75681;BME280;64294;49.176;16.626;2023-11-21T07:43:30;98814.53;;;19.62;38.65
75681;BME280;64294;49.176;16.626;2023-11-21T07:46:01;98815.44;;;19.44;39.49
75681;BME280;64294;49.176;16.626;2023-11-21T07:48:28;98814.13;;;18.92;39.58
75681;BME280;64294;49.176;16.626;2023-11-21T07:50:54;98828.22;;;18.90;40.18
75681;BME280;64294;49.176;16.626;2023-11-21T07:53:19;98824.44;;;20.27;37.72
75681;BME280;64294;49.176;16.626;2023-11-21T07:55:44;98821.19;;;19.13;39.99
75681;BME280;64294;49.176;16.626;2023-11-21T07:58:12;98822.25;;;18.05;41.63
75681;BME280;64294;49.176;16.626;2023-11-21T08:00:38;98826.41;;;20.37;38.58
75681;BME280;64294;49.176;16.626;2023-11-21T08:03:04;98820.88;;;20.62;36.81
75681;BME280;64294;49.176;16.626;2023-11-21T08:05:31;98826.41;;;18.54;40.61
75681;BME280;64294;49.176;16.626;2023-11-21T08:07:56;98829.31;;;16.17;44.94
75681;BME280;64294;49.176;16.626;2023-11-21T08:10:22;98829.50;;;16.19;45.18
75681;BME280;64294;49.176;16.626;2023-11-21T08:12:47;98824.25;;;18.33;42.93
75681;BME280;64294;49.176;16.626;2023-11-21T08:15:14;98821.13;;;16.84;45.59
75681;BME280;64294;49.176;16.626;2023-11-21T08:17:39;98822.97;;;18.15;44.00
75681;BME280;64294;49.176;16.626;2023-11-21T08:20:06;98825.13;;;16.72;45.56
75681;BME280;64294;49.176;16.626;2023-11-21T08:22:31;98820.72;;;15.97;47.59
75681;BME280;64294;49.176;16.626;2023-11-21T08:24:57;98825.44;;;15.51;48.70
75681;BME280;64294;49.176;16.626;2023-11-21T08:27:23;98831.94;;;15.26;50.08
75681;BME280;64294;49.176;16.626;2023-11-21T08:29:48;98833.56;;;14.12;52.98
75681;BME280;64294;49.176;16.626;2023-11-21T08:32:14;98841.56;;;13.58;55.29
75681;BME280;64294;49.176;16.626;2023-11-21T08:34:40;98836.22;;;12.84;56.77
75681;BME280;64294;49.176;16.626;2023-11-21T08:37:08;98840.09;;;11.69;60.30
75681;BME280;64294;49.176;16.626;2023-11-21T08:39:33;98843.66;;;11.26;62.47
75681;BME280;64294;49.176;16.626;2023-11-21T08:41:59;98849.59;;;10.86;65.06
75681;BME280;64294;49.176;16.626;2023-11-21T08:44:24;98848.66;;;10.08;68.76
75681;BME280;64294;49.176;16.626;2023-11-21T08:46:50;98845.00;;;8.73;76.32
75681;BME280;64294;49.176;16.626;2023-11-21T08:49:15;98839.88;;;7.94;83.83
75681;BME280;64294;49.176;16.626;2023-11-21T08:51:41;98847.69;;;7.82;88.64
75681;BME280;64294;49.176;16.626;2023-11-21T08:54:06;98844.13;;;8.01;87.93
75681;BME280;64294;49.176;16.626;2023-11-21T08:56:34;98852.88;;;7.73;89.76
75681;BME280;64294;49.176;16.626;2023-11-21T08:59:00;98853.66;;;7.11;94.22
75681;BME280;64294;49.176;16.626;2023-11-21T09:01:28;98856.50;;;7.49;94.61
75681;BME280;64294;49.176;16.626;2023-11-21T09:03:54;98848.25;;;7.38;94.70
75681;BME280;64294;49.176;16.626;2023-11-21T09:06:19;98855.72;;;7.29;95.19
75681;BME280;64294;49.176;16.626;2023-11-21T09:08:45;98856.75;;;7.51;95.26
75681;BME280;64294;49.176;16.626;2023-11-21T09:11:10;98848.75;;;6.93;99.27
75681;BME280;64294;49.176;16.626;2023-11-21T09:13:36;98861.31;;;7.05;100.00
75681;BME280;64294;49.176;16.626;2023-11-21T09:16:02;98862.66;;;7.23;98.73
75681;BME280;64294;49.176;16.626;2023-11-21T09:18:27;98860.94;;;6.95;100.00
75681;BME280;64294;49.176;16.626;2023-11-21T09:20:52;98859.00;;;7.09;100.00
75681;BME280;64294;49.176;16.626;2023-11-21T09:23:18;98854.03;;;7.21;100.00
75681;BME280;64294;49.176;16.626;2023-11-21T09:25:43;98857.00;;;7.28;100.00
75681;BME280;64294;49.176;16.626;2023-11-21T09:28:11;98857.53;;;7.03;100.00
75681;BME280;64294;49.176;16.626;2023-11-21T09:30:37;98865.09;;;7.32;98.70
75681;BME280;64294;49.176;16.626;2023-11-21T09:33:04;98860.50;;;7.35;97.88
75681;BME280;64294;49.176;16.626;2023-11-21T09:35:38;98857.63;;;7.40;100.00
75681;BME280;64294;49.176;16.626;2023-11-21T09:38:04;98862.84;;;7.49;100.00
75681;BME280;64294;49.176;16.626;2023-11-21T09:40:37;98857.53;;;7.27;100.00
75681;BME280;64294;49.176;16.626;2023-11-21T09:43:06;98860.38;;;7.21;100.00
75681;BME280;64294;49.176;16.626;2023-11-21T09:45:38;98854.03;;;7.21;100.00
75681;BME280;64294;49.176;16.626;2023-11-21T09:48:05;98848.66;;;7.23;100.00
75681;BME280;64294;49.176;16.626;2023-11-21T09:50:32;98850.47;;;7.20;100.00
75681;BME280;64294;49.176;16.626;2023-11-21T09:53:20;98845.47;;;7.56;100.00
75681;BME280;64294;49.176;16.626;2023-11-21T09:55:51;98848.88;;;7.49;100.00
75681;BME280;64294;49.176;16.626;2023-11-21T09:58:18;98845.03;;;7.52;100.00
75681;BME280;64294;49.176;16.626;2023-11-21T10:00:46;98846.66;;;7.42;100.00
75681;BME280;64294;49.176;16.626;2023-11-21T10:03:11;98845.31;;;7.49;100.00
75681;BME280;64294;49.176;16.626;2023-11-21T10:05:38;98843.50;;;7.51;100.00
75681;BME280;64294;49.176;16.626;2023-11-21T10:08:08;98846.09;;;7.25;100.00
75681;BME280;64294;49.176;16.626;2023-11-21T10:10:38;98844.84;;;7.26;100.00
75681;BME280;64294;49.176;16.626;2023-11-21T10:13:11;98843.19;;;7.36;100.00
75681;BME280;64294;49.176;16.626;2023-11-21T10:15:41;98843.44;;;7.57;100.00
75681;BME280;64294;49.176;16.626;2023-11-21T10:18:14;98838.97;;;7.48;100.00
75681;BME280;64294;49.176;16.626;2023-11-21T10:20:40;98834.59;;;7.53;100.00
75681;BME280;64294;49.176;16.626;2023-11-21T10:23:06;98831.25;;;7.54;100.00
75681;BME280;64294;49.176;16.626;2023-11-21T10:25:32;98833.84;;;7.52;100.00
75681;BME280;64294;49.176;16.626;2023-11-21T10:27:59;98830.81;;;7.69;100.00
75681;BME280;64294;49.176;16.626;2023-11-21T10:30:39;98839.34;;;7.77;100.00
75681;BME280;64294;49.176;16.626;2023-11-21T10:33:06;98833.38;;;7.86;100.00
75681;BME280;64294;49.176;16.626;2023-11-21T10:35:45;98835.25;;;7.97;100.00
75681;BME280;64294;49.176;16.626;2023-11-21T10:38:17;98827.19;;;8.25;100.00
75681;BME280;64294;49.176;16.626;2023-11-21T10:40:44;98826.31;;;8.49;100.00
75681;BME280;64294;49.176;16.626;2023-11-21T10:43:10;98824.44;;;8.97;98.10
75681;BME280;64294;49.176;16.626;2023-11-21T10:45:37;98819.47;;;9.29;94.65
75681;BME280;64294;49.176;16.626;2023-11-21T10:48:09;98814.97;;;10.08;89.46
75681;BME280;64294;49.176;16.626;2023-11-21T10:50:36;98813.06;;;11.22;80.26
75681;BME280;64294;49.176;16.626;2023-11-21T10:53:05;98819.78;;;11.99;76.04
75681;BME280;64294;49.176;16.626;2023-11-21T10:55:34;98817.81;;;14.59;64.89
75681;BME280;64294;49.176;16.626;2023-11-21T10:58:04;98819.69;;;15.75;59.39
75681;BME280;64294;49.176;16.626;2023-11-21T11:00:32;98820.53;;;14.74;61.01
75681;BME280;64294;49.176;16.626;2023-11-21T11:02:58;98819.41;;;14.52;61.60
75681;BME280;64294;49.176;16.626;2023-11-21T11:05:26;98817.50;;;14.55;62.25
75681;BME280;64294;49.176;16.626;2023-11-21T11:08:05;98819.25;;;14.68;61.11
75681;BME280;64294;49.176;16.626;2023-11-21T11:10:31;98820.56;;;15.95;57.81
75681;BME280;64294;49.176;16.626;2023-11-21T11:12:58;98822.59;;;17.70;52.25
75681;BME280;64294;49.176;16.626;2023-11-21T11:15:25;98818.97;;;17.12;52.99
75681;BME280;64294;49.176;16.626;2023-11-21T11:17:50;98815.91;;;16.81;52.36
75681;BME280;64294;49.176;16.626;2023-11-21T11:20:17;98822.78;;;16.87;53.24
75681;BME280;64294;49.176;16.626;2023-11-21T11:22:59;98822.63;;;16.85;52.73
75681;BME280;64294;49.176;16.626;2023-11-21T11:28:29;98825.41;;;17.61;50.12
75681;BME280;64294;49.176;16.626;2023-11-21T11:31:05;98811.34;;;16.31;52.53
75681;BME280;64294;49.176;16.626;2023-11-21T11:36:52;98793.94;;;16.91;51.20
75681;BME280;64294;49.176;16.626;2023-11-21T11:39:30;98798.03;;;17.36;51.81
75681;BME280;64294;49.176;16.626;2023-11-21T11:41:57;98795.38;;;18.68;49.18
75681;BME280;64294;49.176;16.626;2023-11-21T11:47:34;98783.00;;;21.71;40.84
75681;BME280;64294;49.176;16.626;2023-11-21T11:50:11;98793.66;;;22.08;40.79
75681;BME280;64294;49.176;16.626;2023-11-21T11:55:15;98793.97;;;18.07;48.33
75681;BME280;64294;49.176;16.626;2023-11-21T11:57:46;98788.06;;;16.70;51.33
75681;BME280;64294;49.176;16.626;2023-11-21T12:00:19;98792.78;;;15.67;53.94
75681;BME280;64294;49.176;16.626;2023-11-21T12:02:51;98793.38;;;14.96;57.01
75681;BME280;64294;49.176;16.626;2023-11-21T12:05:23;98792.03;;;13.98;60.00
75681;BME280;64294;49.176;16.626;2023-11-21T12:07:53;98793.47;;;13.74;61.30
75681;BME280;64294;49.176;16.626;2023-11-21T12:10:39;98790.06;;;13.35;63.61
75681;BME280;64294;49.176;16.626;2023-11-21T12:13:11;98791.41;;;13.19;64.04
75681;BME280;64294;49.176;16.626;2023-11-21T12:15:38;98786.78;;;12.68;67.57
75681;BME280;64294;49.176;16.626;2023-11-21T12:18:05;98795.59;;;12.26;70.33
75681;BME280;64294;49.176;16.626;2023-11-21T12:20:31;98795.03;;;12.20;71.57
75681;BME280;64294;49.176;16.626;2023-11-21T12:22:58;98796.16;;;12.17;72.18
75681;BME280;64294;49.176;16.626;2023-11-21T12:25:29;98799.38;;;12.44;69.27
75681;BME280;64294;49.176;16.626;2023-11-21T12:27:57;98792.06;;;12.49;69.39
75681;BME280;64294;49.176;16.626;2023-11-21T12:30:25;98789.78;;;12.09;72.70
75681;BME280;64294;49.176;16.626;2023-11-21T12:32:54;98792.03;;;12.10;72.32
75681;BME280;64294;49.176;16.626;2023-11-21T12:35:23;98797.25;;;11.99;72.99
75681;BME280;64294;49.176;16.626;2023-11-21T12:37:51;98790.66;;;11.89;73.91
75681;BME280;64294;49.176;16.626;2023-11-21T12:40:17;98800.63;;;12.05;72.27
75681;BME280;64294;49.176;16.626;2023-11-21T12:42:47;98789.91;;;11.88;73.29
75681;BME280;64294;49.176;16.626;2023-11-21T12:47:46;98794.31;;;11.68;73.87
75681;BME280;64294;49.176;16.626;2023-11-21T12:50:13;98796.41;;;11.75;73.05
75681;BME280;64294;49.176;16.626;2023-11-21T12:52:42;98798.06;;;11.71;73.03
75681;BME280;64294;49.176;16.626;2023-11-21T12:55:16;98789.03;;;11.57;72.73
75681;BME280;64294;49.176;16.626;2023-11-21T12:57:47;98796.66;;;11.85;72.29
75681;BME280;64294;49.176;16.626;2023-11-21T13:00:16;98793.78;;;11.77;71.83
75681;BME280;64294;49.176;16.626;2023-11-21T13:02:57;98796.31;;;12.04;70.90
75681;BME280;64294;49.176;16.626;2023-11-21T13:05:30;98792.19;;;12.05;72.44